Time;durP1;ratioP1;P1;durP2;ratioP2;P2;SDS_P1;SDS_P2;PMS_P1;PMS_P2;Temp;Humidity;BMP_temperature;BMP_pressure;BME280_temperature;BME280_humidity;BME280_pressure;Samples;Min_cycle;Max_cycle;Signal;HPM_P1;HPM_P2
2021/08/14 00:02:50;;;;;;;5.85;5.45;;;;;;;20.22;86.70;100987.16;6310830;28;20278;-77
2021/08/14 00:05:55;;;;;;;5.28;4.88;;;;;;;20.12;86.45;101003.78;6312196;28;20195;-78
2021/08/14 00:08:59;;;;;;;5.65;5.15;;;;;;;20.12;85.96;101009.31;6312137;28;20184;-77
2021/08/14 00:12:06;;;;;;;6.90;5.05;;;;;;;20.24;85.08;100996.06;6311969;28;20233;-77
2021/08/14 00:15:13;;;;;;;5.22;4.78;;;;;;;20.26;85.05;101004.94;6311016;28;20259;-77
2021/08/14 00:18:18;;;;;;;5.22;4.95;;;;;;;20.10;84.42;101012.38;6312130;28;20191;-77
2021/08/14 00:21:22;;;;;;;5.85;4.47;;;;;;;19.98;84.64;101004.31;6311894;28;20277;-77
2021/08/14 00:24:26;;;;;;;4.28;4.07;;;;;;;20.16;84.14;101016.00;6316095;28;20195;-77
2021/08/14 00:27:30;;;;;;;4.65;4.22;;;;;;;20.18;83.82;100999.91;6315160;28;20463;-77
2021/08/14 00:30:35;;;;;;;4.63;4.10;;;;;;;20.22;83.83;100995.47;6316242;28;20184;-77
2021/08/14 00:33:40;;;;;;;4.05;3.85;;;;;;;20.19;84.06;101004.31;6315251;28;20408;-77
2021/08/14 00:36:44;;;;;;;4.90;4.30;;;;;;;20.16;84.01;101004.91;6316013;28;20251;-77
2021/08/14 00:39:48;;;;;;;4.40;4.10;;;;;;;20.18;83.61;100991.59;6315205;28;20183;-77
2021/08/14 00:42:52;;;;;;;4.38;4.18;;;;;;;20.19;83.33;101005.16;6314649;28;20574;-77
2021/08/14 00:46:00;;;;;;;4.57;4.20;;;;;;;20.21;83.18;100982.75;6315591;28;20187;-77
2021/08/14 00:49:11;;;;;;;4.82;4.45;;;;;;;20.08;82.72;100988.84;6316121;28;20184;-77
2021/08/14 00:52:15;;;;;;;4.55;4.22;;;;;;;20.10;82.87;100989.38;6315606;28;20223;-77
2021/08/14 00:55:23;;;;;;;4.55;4.35;;;;;;;19.95;83.27;100992.97;6314224;28;20183;-77
2021/08/14 00:58:31;;;;;;;4.88;4.53;;;;;;;19.94;83.33;100986.59;6315784;28;20206;-77
2021/08/14 01:01:37;;;;;;;5.10;4.80;;;;;;;19.85;81.78;100981.88;6315839;28;20286;-77
2021/08/14 01:04:41;;;;;;;4.85;4.60;;;;;;;19.85;81.72;100988.22;6315220;28;20222;-77
2021/08/14 01:07:46;;;;;;;4.75;4.47;;;;;;;19.76;80.00;100987.13;6314454;28;20390;-77
2021/08/14 01:10:50;;;;;;;4.50;4.20;;;;;;;19.64;78.63;100983.78;6315534;28;20185;-77
2021/08/14 01:13:56;;;;;;;4.53;4.25;;;;;;;19.66;78.53;100987.09;6314761;28;20234;-77
2021/08/14 01:17:03;;;;;;;5.65;4.10;;;;;;;19.55;77.63;100982.63;6314706;28;20301;-77
2021/08/14 01:20:12;;;;;;;4.00;3.63;;;;;;;19.62;77.31;100982.41;6315189;28;20206;-77
2021/08/14 01:23:17;;;;;;;11.02;4.32;;;;;;;19.51;77.45;100981.53;6314786;28;20218;-77
2021/08/14 01:26:22;;;;;;;3.38;3.10;;;;;;;19.43;77.41;100968.22;6313744;28;20500;-77
2021/08/14 01:29:27;;;;;;;3.83;3.63;;;;;;;19.36;76.80;100981.47;6313838;28;20183;-77
2021/08/14 01:32:33;;;;;;;3.53;3.33;;;;;;;19.19;77.62;100986.34;6313412;28;20475;-77
2021/08/14 01:35:39;;;;;;;3.70;3.40;;;;;;;19.18;77.93;100977.22;6314434;28;20183;-77
2021/08/14 01:38:47;;;;;;;4.63;3.65;;;;;;;19.20;77.99;100985.25;6314310;28;20222;-77
2021/08/14 01:41:55;;;;;;;3.80;3.50;;;;;;;19.10;77.82;100974.16;6314778;28;20191;-77
2021/08/14 01:45:01;;;;;;;4.25;3.60;;;;;;;19.00;78.01;100974.13;6313674;28;20187;-77
2021/08/14 01:48:06;;;;;;;4.22;3.65;;;;;;;19.03;78.59;100973.59;6313118;28;20200;-77
2021/08/14 01:51:10;;;;;;;3.55;3.35;;;;;;;18.99;78.75;100969.66;6314242;28;20184;-80
2021/08/14 01:54:15;;;;;;;4.22;3.83;;;;;;;19.02;78.13;100974.66;6314290;28;20195;-77
2021/08/14 01:57:19;;;;;;;6.28;3.38;;;;;;;19.01;78.32;100964.69;6314060;28;20183;-77
2021/08/14 02:00:25;;;;;;;3.70;3.50;;;;;;;18.97;78.31;100958.06;6313960;28;20184;-77
2021/08/14 02:03:31;;;;;;;3.88;3.58;;;;;;;18.77;78.57;100965.13;6314005;28;20211;-77
2021/08/14 02:06:36;;;;;;;3.72;3.45;;;;;;;18.82;78.24;100956.06;6313265;28;20184;-77
2021/08/14 02:09:43;;;;;;;3.60;3.40;;;;;;;18.81;78.25;100959.06;6312712;28;20183;-77
2021/08/14 02:12:52;;;;;;;4.97;3.15;;;;;;;18.85;77.96;100961.03;6313632;28;20194;-77
2021/08/14 02:15:58;;;;;;;3.90;3.60;;;;;;;18.61;78.70;100966.16;6312837;28;20284;-77
2021/08/14 02:19:03;;;;;;;3.72;3.40;;;;;;;18.56;78.95;100957.84;6312415;28;20188;-77
2021/08/14 02:22:07;;;;;;;3.10;2.85;;;;;;;18.67;78.58;100972.53;6312276;28;20612;-77
2021/08/14 02:25:13;;;;;;;6.78;3.50;;;;;;;18.59;78.91;100965.56;6313338;28;20207;-77
2021/08/14 02:28:18;;;;;;;3.72;3.45;;;;;;;18.48;79.15;100958.34;6313146;28;20190;-77
2021/08/14 02:31:23;;;;;;;3.30;3.20;;;;;;;18.52;78.34;100956.69;6312988;28;20261;-77
2021/08/14 02:34:28;;;;;;;3.40;3.30;;;;;;;18.63;78.22;100955.66;6313469;28;20225;-77
2021/08/14 02:37:32;;;;;;;3.15;2.90;;;;;;;18.54;78.97;100954.50;6314102;28;20212;-77
2021/08/14 02:40:36;;;;;;;3.28;3.05;;;;;;;18.66;78.46;100957.91;6314224;28;20191;-77
2021/08/14 02:43:41;;;;;;;3.78;3.13;;;;;;;18.43;79.62;100951.91;6311961;28;20438;-77
2021/08/14 02:46:47;;;;;;;3.17;3.03;;;;;;;18.40;79.94;100961.56;6311446;28;20472;-77
2021/08/14 02:49:51;;;;;;;6.70;3.25;;;;;;;18.40;80.36;100964.31;6312850;28;20252;-77
2021/08/14 02:52:56;;;;;;;3.28;3.05;;;;;;;18.41;80.09;100949.38;6311807;28;20408;-77
2021/08/14 02:56:03;;;;;;;4.80;2.80;;;;;;;18.53;78.78;100957.53;6312406;28;20184;-77
2021/08/14 02:59:07;;;;;;;3.08;2.83;;;;;;;18.56;78.23;100966.13;6312994;28;20190;-77
2021/08/14 03:02:14;;;;;;;4.03;2.80;;;;;;;18.46;78.39;100957.72;6311646;28;20230;-77
2021/08/14 03:05:21;;;;;;;2.95;2.58;;;;;;;18.44;78.12;100968.19;6311401;28;20275;-77
2021/08/14 03:08:25;;;;;;;2.90;2.75;;;;;;;18.31;78.37;100960.38;6312657;28;20184;-77
2021/08/14 03:11:32;;;;;;;2.67;2.58;;;;;;;18.32;78.63;100959.28;6312770;28;20255;-77
2021/08/14 03:14:38;;;;;;;3.00;2.80;;;;;;;18.25;78.22;100966.97;6312168;28;20231;-77
2021/08/14 03:17:44;;;;;;;3.13;2.80;;;;;;;18.27;78.20;100964.78;6312249;28;20215;-77
2021/08/14 03:20:50;;;;;;;4.47;2.58;;;;;;;18.25;78.83;100971.66;6312554;28;20184;-77
2021/08/14 03:23:55;;;;;;;3.00;2.70;;;;;;;18.24;78.72;100970.81;6312375;28;20215;-77
2021/08/14 03:26:59;;;;;;;3.50;3.17;;;;;;;18.28;79.09;100965.59;6312261;28;20189;-77
2021/08/14 03:30:06;;;;;;;5.15;2.60;;;;;;;18.24;78.68;100976.34;6311749;28;20254;-77
2021/08/14 03:33:15;;;;;;;3.08;2.88;;;;;;;18.15;79.15;100969.66;6312106;28;20247;-77
2021/08/14 03:36:20;;;;;;;4.18;2.90;;;;;;;18.12;79.13;100967.41;6312394;28;20183;-77
2021/08/14 03:39:24;;;;;;;3.00;2.90;;;;;;;18.26;79.12;100974.13;6312507;28;20187;-77
2021/08/14 03:42:29;;;;;;;3.20;2.88;;;;;;;18.18;79.39;100971.88;6312538;28;20184;-77
2021/08/14 03:45:33;;;;;;;2.70;2.60;;;;;;;18.09;79.11;100988.09;6312170;28;20207;-77
2021/08/14 03:48:39;;;;;;;2.95;2.75;;;;;;;17.82;79.88;100983.72;6311085;28;20183;-77
2021/08/14 03:51:43;;;;;;;2.70;2.50;;;;;;;18.06;79.09;100985.03;6311917;28;20259;-77
2021/08/14 03:54:47;;;;;;;2.75;2.65;;;;;;;17.86;79.44;100973.78;6311114;28;20194;-77
2021/08/14 03:57:51;;;;;;;3.33;2.80;;;;;;;18.03;79.03;100980.03;6313543;28;20534;-77
2021/08/14 04:00:59;;;;;;;2.55;2.40;;;;;;;18.02;78.95;100967.34;6315911;28;20188;-77
2021/08/14 04:04:07;;;;;;;3.85;2.88;;;;;;;18.00;78.99;100977.81;6315420;28;20382;-77
2021/08/14 04:07:12;;;;;;;2.60;2.40;;;;;;;17.93;78.73;100974.41;6317020;28;20187;-77
2021/08/14 04:10:21;;;;;;;4.60;2.45;;;;;;;17.97;78.53;100975.56;6315705;28;20195;-77
2021/08/14 04:13:25;;;;;;;4.70;3.03;;;;;;;17.87;78.95;100964.44;6316629;28;20190;-77
2021/08/14 04:16:30;;;;;;;2.92;2.65;;;;;;;17.89;78.95;100962.25;6316382;28;20289;-77
2021/08/14 04:19:36;;;;;;;3.28;2.80;;;;;;;17.97;78.61;100970.06;6315364;28;20476;-77
2021/08/14 04:22:41;;;;;;;2.80;2.63;;;;;;;18.01;78.17;100960.13;6316429;28;20183;-77
2021/08/14 04:25:47;;;;;;;2.80;2.60;;;;;;;17.69;79.13;100959.28;6315730;28;20207;-76
2021/08/14 04:28:53;;;;;;;2.92;2.75;;;;;;;17.79;79.03;100959.38;6316207;28;20270;-76
2021/08/14 04:31:57;;;;;;;3.63;3.30;;;;;;;17.81;78.57;100973.75;6316075;28;20183;-76
2021/08/14 04:35:09;;;;;;;3.08;2.67;;;;;;;17.76;78.39;100970.94;6316059;28;20250;-77
2021/08/14 04:38:14;;;;;;;3.53;2.58;;;;;;;17.72;78.26;100961.53;6316177;28;20255;-77
2021/08/14 04:41:21;;;;;;;5.50;2.83;;;;;;;17.78;77.78;100960.47;6315377;28;20190;-77
2021/08/14 04:44:25;;;;;;;3.05;2.72;;;;;;;17.81;77.85;100971.84;6314684;28;20413;-77
2021/08/14 04:47:32;;;;;;;2.92;2.70;;;;;;;17.64;77.88;100957.28;6314881;28;20477;-77
2021/08/14 04:50:40;;;;;;;3.20;2.53;;;;;;;17.85;77.68;100977.63;6314758;28;20377;-77
2021/08/14 04:53:44;;;;;;;3.20;2.60;;;;;;;17.88;77.28;100961.41;6315889;28;20254;-77
2021/08/14 04:56:48;;;;;;;3.95;2.47;;;;;;;17.93;76.87;100968.88;6314573;28;20480;-77
2021/08/14 04:59:55;;;;;;;4.45;3.00;;;;;;;17.89;77.10;100962.25;6315691;28;20183;-77
2021/08/14 05:02:59;;;;;;;3.08;2.72;;;;;;;18.00;76.65;100969.53;6314164;28;20261;-77
2021/08/14 05:06:07;;;;;;;4.43;2.72;;;;;;;17.79;76.69;100963.00;6314177;28;20585;-77
2021/08/14 05:09:12;;;;;;;5.72;3.05;;;;;;;17.89;76.44;100962.25;6313808;28;20360;-77
2021/08/14 05:12:16;;;;;;;3.42;2.92;;;;;;;17.92;75.98;100950.69;6314334;28;20190;-77
2021/08/14 05:15:22;;;;;;;3.00;2.80;;;;;;;17.97;75.83;100959.00;6313980;28;20277;-77
2021/08/14 05:18:27;;;;;;;7.78;2.58;;;;;;;17.98;75.70;100947.69;6315059;28;20184;-77
2021/08/14 05:21:33;;;;;;;3.42;2.70;;;;;;;18.02;75.67;100950.75;6314961;28;20293;-77
2021/08/14 05:24:37;;;;;;;3.20;2.70;;;;;;;17.98;75.45;100949.59;6314970;28;20234;-77
2021/08/14 05:27:42;;;;;;;3.90;2.40;;;;;;;17.95;75.66;100950.16;6314631;28;20187;-77
2021/08/14 05:30:46;;;;;;;2.47;2.38;;;;;;;17.90;74.97;100948.16;6314857;28;20184;-77
2021/08/14 05:33:50;;;;;;;6.20;2.53;;;;;;;17.95;75.25;100941.88;6314085;28;20183;-77
2021/08/14 05:36:55;;;;;;;4.28;2.70;;;;;;;17.92;75.51;100958.97;6314763;28;20187;-77
2021/08/14 05:40:02;;;;;;;2.58;2.38;;;;;;;18.03;74.31;100963.47;6313352;28;20475;-77
2021/08/14 05:43:07;;;;;;;3.00;2.80;;;;;;;17.99;74.49;100945.78;6313180;28;20490;-77
2021/08/14 05:46:12;;;;;;;3.50;2.50;;;;;;;18.02;72.88;100951.59;6313037;28;20377;-77
2021/08/14 05:49:16;;;;;;;7.22;2.47;;;;;;;18.00;72.62;100947.44;6313270;28;20502;-77
2021/08/14 05:52:23;;;;;;;2.50;2.30;;;;;;;18.05;72.98;100945.53;6313424;28;20190;-77
2021/08/14 05:55:27;;;;;;;2.83;2.60;;;;;;;18.05;72.03;100930.91;6314128;28;20225;-77
2021/08/14 05:58:34;;;;;;;3.20;2.35;;;;;;;18.09;71.89;100940.31;6312814;28;20358;-77
2021/08/14 06:01:38;;;;;;;6.43;2.58;;;;;;;18.10;71.81;100953.84;6312676;28;20219;-77
2021/08/14 06:04:44;;;;;;;7.78;3.00;;;;;;;18.15;71.17;100953.09;6312439;28;20416;-77
2021/08/14 06:07:52;;;;;;;7.47;2.45;;;;;;;18.12;69.50;100953.59;6314323;28;20229;-78
2021/08/14 06:10:59;;;;;;;4.68;2.42;;;;;;;18.09;69.47;100952.22;6313922;28;20246;-76
2021/08/14 06:14:04;;;;;;;5.38;2.40;;;;;;;18.10;69.52;100944.75;6312005;28;20250;-76
2021/08/14 06:17:08;;;;;;;6.50;2.70;;;;;;;18.17;69.19;100947.28;6312053;28;20502;-76
2021/08/14 06:20:13;;;;;;;4.97;2.45;;;;;;;18.14;69.23;100943.97;6312511;28;20184;-76
2021/08/14 06:23:18;;;;;;;2.10;2.00;;;;;;;18.27;69.51;100948.19;6312173;28;20191;-76
2021/08/14 06:26:22;;;;;;;6.70;2.45;;;;;;;18.16;67.37;100946.44;6312569;28;20211;-76
2021/08/14 06:29:27;;;;;;;6.68;2.45;;;;;;;18.35;68.11;100939.44;6312068;28;20213;-76
2021/08/14 06:32:31;;;;;;;7.22;2.55;;;;;;;18.43;66.78;100936.16;6313039;28;20183;-77
2021/08/14 06:35:35;;;;;;;6.25;2.75;;;;;;;18.61;66.59;100938.53;6311850;28;20187;-77
2021/08/14 06:38:45;;;;;;;5.53;2.50;;;;;;;18.67;66.70;100931.91;6312867;28;20250;-76
2021/08/14 06:41:50;;;;;;;2.95;2.30;;;;;;;18.70;66.41;100938.84;6311652;28;20378;-77
2021/08/14 06:44:54;;;;;;;3.28;2.70;;;;;;;18.75;66.22;100945.22;6312643;28;20249;-76
2021/08/14 06:47:58;;;;;;;5.70;2.42;;;;;;;18.63;65.67;100941.84;6312410;28;20211;-76
2021/08/14 06:51:05;;;;;;;3.85;2.10;;;;;;;18.70;66.31;100936.91;6312784;28;20183;-77
2021/08/14 06:54:11;;;;;;;4.03;2.30;;;;;;;18.81;65.48;100937.78;6311387;28;20471;-76
2021/08/14 06:57:15;;;;;;;3.78;2.15;;;;;;;18.92;65.51;100938.69;6312726;28;20195;-76
2021/08/14 07:00:19;;;;;;;3.80;2.50;;;;;;;18.81;64.06;100936.97;6312177;28;20255;-77
2021/08/14 07:03:24;;;;;;;5.60;2.50;;;;;;;18.93;64.31;100940.31;6311433;28;20183;-76
2021/08/14 07:06:28;;;;;;;6.03;2.25;;;;;;;18.97;64.61;100941.47;6311058;28;20274;-76
2021/08/14 07:09:36;;;;;;;3.22;2.30;;;;;;;18.88;65.03;100934.78;6312528;28;20183;-76
2021/08/14 07:12:44;;;;;;;10.45;2.28;;;;;;;19.06;65.48;100934.31;6310962;28;20475;-76
2021/08/14 07:15:51;;;;;;;3.42;2.42;;;;;;;19.08;64.54;100934.88;6311211;28;20321;-76
2021/08/14 07:18:59;;;;;;;7.20;2.28;;;;;;;19.09;64.32;100931.84;6311171;28;20361;-76
2021/08/14 07:22:04;;;;;;;6.35;2.15;;;;;;;19.35;65.47;100930.00;6311096;28;20475;-76
2021/08/14 07:25:11;;;;;;;5.63;1.85;;;;;;;19.55;63.84;100927.28;6311681;28;20188;-76
2021/08/14 07:28:15;;;;;;;5.35;2.67;;;;;;;19.54;63.17;100925.63;6312108;28;20270;-76
2021/08/14 07:31:21;;;;;;;2.45;2.05;;;;;;;19.54;61.85;100931.16;6313716;28;20187;-76
2021/08/14 07:34:26;;;;;;;7.20;2.65;;;;;;;19.33;61.58;100923.91;6316307;28;20184;-76
2021/08/14 07:37:31;;;;;;;6.90;2.35;;;;;;;19.48;61.74;100921.19;6316010;28;20533;-76
2021/08/14 07:40:37;;;;;;;3.88;2.20;;;;;;;19.40;61.73;100918.97;6317040;28;20221;-76
2021/08/14 07:43:41;;;;;;;6.72;2.30;;;;;;;19.56;62.05;100912.38;6316969;28;20183;-76
2021/08/14 07:46:49;;;;;;;4.18;1.88;;;;;;;19.54;61.17;100920.09;6316316;28;20210;-77
2021/08/14 07:49:53;;;;;;;4.15;2.33;;;;;;;19.35;60.98;100905.09;6317001;28;20251;-77
2021/08/14 07:52:59;;;;;;;4.18;2.05;;;;;;;19.32;60.51;100916.69;6316516;28;20199;-77
2021/08/14 07:56:06;;;;;;;2.58;1.95;;;;;;;19.52;61.96;100911.22;6316074;28;20230;-76
2021/08/14 07:59:10;;;;;;;5.22;2.15;;;;;;;19.68;60.53;100915.69;6340566;28;20475;-76
2021/08/14 08:02:14;;;;;;;6.38;1.88;;;;;;;19.61;60.10;100906.84;6341466;28;20183;-76
2021/08/14 08:05:19;;;;;;;6.38;2.10;;;;;;;19.65;59.67;100909.88;6341005;28;20190;-76
2021/08/14 08:08:23;;;;;;;9.45;2.10;;;;;;;19.71;59.87;100912.38;6341484;28;20214;-76
2021/08/14 08:11:29;;;;;;;8.15;2.28;;;;;;;19.69;59.20;100911.84;6340989;28;20253;-76
2021/08/14 08:14:33;;;;;;;7.57;2.00;;;;;;;19.75;59.59;100913.47;6340039;28;20410;-76
2021/08/14 08:17:38;;;;;;;7.63;2.20;;;;;;;19.89;59.98;100906.31;6341071;28;20191;-76
2021/08/14 08:20:42;;;;;;;9.25;2.25;;;;;;;19.95;59.81;100910.72;6341250;28;20183;-76
2021/08/14 08:23:46;;;;;;;4.78;2.35;;;;;;;19.77;59.40;100914.03;6340808;28;20418;-76
2021/08/14 08:26:51;;;;;;;5.55;1.98;;;;;;;19.84;60.29;100914.59;6340933;28;20303;-77
2021/08/14 08:29:55;;;;;;;6.75;2.10;;;;;;;19.87;60.78;100908.53;6340692;28;20274;-77
2021/08/14 08:33:00;;;;;;;4.70;2.20;;;;;;;19.93;59.32;100904.63;6339661;28;20466;-78
2021/08/14 08:36:04;;;;;;;1.90;1.80;;;;;;;20.08;59.64;100902.97;6340595;28;20183;-76
2021/08/14 08:39:09;;;;;;;6.40;2.08;;;;;;;20.08;60.30;100911.28;6340958;28;20240;-76
2021/08/14 08:42:15;;;;;;;5.68;2.15;;;;;;;20.03;59.34;100902.97;6338811;28;20270;-77
2021/08/14 08:45:19;;;;;;;2.63;1.92;;;;;;;20.06;59.25;100905.16;6340360;28;20257;-77
2021/08/14 08:48:24;;;;;;;4.70;1.98;;;;;;;20.09;59.18;100904.63;6339800;28;20434;-77
2021/08/14 08:51:31;;;;;;;4.65;1.98;;;;;;;20.10;60.19;100917.38;6339905;28;20535;-77
2021/08/14 08:54:35;;;;;;;6.75;2.13;;;;;;;20.13;59.46;100912.13;6340364;28;20190;-77
2021/08/14 08:57:44;;;;;;;6.15;2.00;;;;;;;20.28;59.30;100909.34;6339155;28;20376;-76
2021/08/14 09:00:48;;;;;;;7.03;2.13;;;;;;;20.23;58.95;100906.59;6340114;28;20189;-77
2021/08/14 09:04:23;;;;;;;3.65;2.00;;;;;;;20.23;57.78;100905.72;6339157;28;20466;-77
2021/08/14 09:07:28;;;;;;;3.78;1.70;;;;;;;20.16;57.84;100899.66;6339049;28;20376;-77
2021/08/14 09:10:33;;;;;;;5.72;1.98;;;;;;;20.13;57.23;100905.75;6339601;28;20378;-77
2021/08/14 09:14:04;;;;;;;3.15;1.85;;;;;;;20.13;57.94;100900.19;6339809;28;20230;-77
2021/08/14 09:17:11;;;;;;;6.68;2.17;;;;;;;20.02;58.02;100895.75;6339820;28;20187;-77
2021/08/14 09:20:18;;;;;;;4.43;1.85;;;;;;;20.17;58.06;100901.28;6339259;28;20246;-77
2021/08/14 09:23:24;;;;;;;5.57;1.73;;;;;;;20.27;58.25;100890.22;6339064;28;20183;-77
2021/08/14 09:26:28;;;;;;;3.42;2.08;;;;;;;20.28;57.27;100897.44;6339557;28;20183;-77
2021/08/14 09:29:36;;;;;;;5.65;2.00;;;;;;;20.24;58.39;100885.25;6339928;28;20213;-77
2021/08/14 09:32:43;;;;;;;2.35;1.70;;;;;;;20.41;57.29;100883.00;6338467;28;20194;-77
2021/08/14 09:35:53;;;;;;;5.07;2.20;;;;;;;20.37;58.87;100876.34;6339147;28;20206;-76
2021/08/14 09:39:01;;;;;;;3.85;2.03;;;;;;;20.26;56.08;100894.13;6339486;28;20194;-77
2021/08/14 09:42:07;;;;;;;4.32;1.88;;;;;;;20.25;57.25;100887.75;6339334;28;20250;-76
2021/08/14 09:45:16;;;;;;;6.65;2.22;;;;;;;20.28;56.88;100891.91;6339593;28;20183;-77
2021/08/14 09:48:22;;;;;;;6.00;2.40;;;;;;;20.46;57.07;100888.53;6339396;28;20206;-76
2021/08/14 09:51:28;;;;;;;6.63;2.00;;;;;;;20.49;56.79;100876.88;6338935;28;20252;-79
2021/08/14 09:54:37;;;;;;;6.88;1.95;;;;;;;20.53;56.85;100877.97;6338837;28;20183;-76
2021/08/14 09:57:42;;;;;;;5.47;1.80;;;;;;;20.67;56.35;100879.06;6338156;28;20248;-76
2021/08/14 10:00:49;;;;;;;9.32;2.33;;;;;;;20.66;54.84;100877.38;6339098;28;20190;-76
2021/08/14 10:03:54;;;;;;;5.50;2.00;;;;;;;20.62;56.02;100881.81;6338733;28;20226;-76
2021/08/14 10:06:58;;;;;;;3.45;2.10;;;;;;;20.66;56.26;100871.84;6338608;28;20195;-77
2021/08/14 10:10:02;;;;;;;3.85;2.10;;;;;;;20.72;56.10;100869.88;6338185;28;20361;-76
2021/08/14 10:13:10;;;;;;;7.60;2.03;;;;;;;20.63;56.48;100866.84;6338973;28;20183;-77
2021/08/14 10:16:16;;;;;;;1.88;1.67;;;;;;;20.58;56.18;100861.31;6337830;28;20238;-77
2021/08/14 10:19:26;;;;;;;4.25;1.65;;;;;;;20.49;54.66;100874.13;6338726;28;20191;-77
2021/08/14 10:22:31;;;;;;;5.93;1.70;;;;;;;20.58;55.07;100861.31;6338800;28;20187;-77
2021/08/14 10:25:38;;;;;;;5.18;1.60;;;;;;;20.58;54.83;100853.00;6337274;28;20405;-77
2021/08/14 10:28:47;;;;;;;2.63;1.65;;;;;;;20.66;55.18;100857.97;6338567;28;20214;-77
2021/08/14 10:31:52;;;;;;;5.28;1.90;;;;;;;20.68;54.82;100841.03;6337823;28;20183;-77
2021/08/14 10:35:39;;;;;;;2.42;1.70;;;;;;;20.80;53.41;100831.28;6337909;28;20182;-77
2021/08/14 10:38:44;;;;;;;1.85;1.70;;;;;;;20.92;53.91;100831.81;6336718;28;20494;-76
2021/08/14 10:41:50;;;;;;;4.50;1.85;;;;;;;20.99;54.77;100837.84;6336692;28;20438;-77
2021/08/14 10:45:13;;;;;;;6.30;1.60;;;;;;;21.17;54.18;100822.53;6337910;28;20183;-77
2021/08/14 10:48:53;;;;;;;2.08;1.48;;;;;;;21.26;53.96;100815.25;6337844;28;20207;-77
2021/08/14 10:52:12;;;;;;;6.60;1.90;;;;;;;21.25;52.33;100824.69;6336783;28;20470;-78
2021/08/14 10:55:18;;;;;;;5.30;2.10;;;;;;;21.42;53.90;100827.06;6338014;28;20187;-77
2021/08/14 10:58:28;;;;;;;1.70;1.55;;;;;;;21.51;52.51;100828.09;6337835;28;20312;-76
2021/08/14 11:01:33;;;;;;;2.00;1.80;;;;;;;21.45;51.33;100823.69;6336770;28;20189;-77
2021/08/14 11:04:40;;;;;;;3.30;1.83;;;;;;;21.41;50.65;100812.38;6337421;28;20193;-76
2021/08/14 11:07:44;;;;;;;4.13;1.80;;;;;;;21.45;50.35;100824.53;6336565;28;20198;-77
2021/08/14 11:10:49;;;;;;;3.42;1.70;;;;;;;21.38;49.68;100823.22;6336235;28;20367;-76
2021/08/14 11:14:09;;;;;;;4.25;1.40;;;;;;;21.37;49.77;100830.69;6336869;28;20206;-76
2021/08/14 11:17:15;;;;;;;8.02;1.63;;;;;;;21.35;49.53;100815.47;6337476;28;20190;-76
2021/08/14 11:20:33;;;;;;;3.30;1.80;;;;;;;21.34;49.26;100822.13;6337226;28;20256;-77
2021/08/14 11:23:57;;;;;;;6.15;2.33;;;;;;;21.50;49.41;100815.34;6336138;28;20235;-76
2021/08/14 11:27:17;;;;;;;1.70;1.40;;;;;;;21.60;49.68;100821.63;6336911;28;20260;-77
2021/08/14 11:30:23;;;;;;;4.47;1.75;;;;;;;21.49;49.51;100797.88;6336063;28;20561;-76
2021/08/14 11:33:27;;;;;;;2.08;1.73;;;;;;;21.55;49.24;100801.41;6337032;28;20183;-76
2021/08/14 11:36:33;;;;;;;4.32;1.75;;;;;;;21.55;50.21;100801.41;6336272;28;20194;-76
2021/08/14 11:39:40;;;;;;;3.20;1.60;;;;;;;21.51;50.74;100794.81;6336994;28;20191;-75
2021/08/14 11:42:54;;;;;;;3.75;1.35;;;;;;;21.58;50.25;100795.28;6337229;28;20189;-75
2021/08/14 11:46:05;;;;;;;4.35;1.80;;;;;;;21.59;48.93;100794.19;6336309;28;20190;-76
2021/08/14 11:49:10;;;;;;;5.47;1.40;;;;;;;21.59;47.60;100799.72;6335460;28;20413;-75
2021/08/14 11:52:20;;;;;;;5.55;1.70;;;;;;;21.69;48.89;100792.16;6336887;28;20358;-76
2021/08/14 11:55:24;;;;;;;5.55;1.80;;;;;;;21.77;47.92;100785.13;6337021;28;20183;-77
2021/08/14 11:58:31;;;;;;;2.95;1.65;;;;;;;21.89;47.22;100782.81;6335433;28;20187;-75
2021/08/14 12:01:37;;;;;;;2.97;1.73;;;;;;;21.86;47.59;100782.56;6336817;28;20189;-76
2021/08/14 12:04:44;;;;;;;5.00;1.95;;;;;;;21.88;46.34;100778.38;6336105;28;20189;-77
2021/08/14 12:07:52;;;;;;;5.00;1.98;;;;;;;21.83;46.57;100764.50;6335578;28;20470;-76
2021/08/14 12:10:56;;;;;;;1.58;1.48;;;;;;;21.91;47.14;100766.69;6335004;28;20238;-77
2021/08/14 12:14:17;;;;;;;2.58;1.50;;;;;;;21.82;45.55;100746.19;6335963;28;20205;-77
2021/08/14 12:17:22;;;;;;;4.35;1.40;;;;;;;21.97;45.17;100748.84;6327622;28;20470;-76
2021/08/14 12:20:29;;;;;;;2.78;1.35;;;;;;;22.00;45.20;100742.72;6340032;28;20383;-77
2021/08/14 12:23:37;;;;;;;2.60;1.55;;;;;;;22.11;44.97;100747.00;6340867;28;20258;-77
2021/08/14 12:26:41;;;;;;;2.53;1.38;;;;;;;22.04;45.76;100735.41;6340796;28;20183;-76
2021/08/14 12:29:45;;;;;;;4.40;1.20;;;;;;;22.15;45.59;100739.75;6339840;28;20582;-77
2021/08/14 12:32:51;;;;;;;1.95;1.45;;;;;;;22.24;45.81;100731.56;6339923;28;20474;-77
2021/08/14 12:36:00;;;;;;;1.60;1.35;;;;;;;22.33;45.58;100736.19;6340751;28;20306;-77
2021/08/14 12:39:06;;;;;;;1.50;1.40;;;;;;;22.38;45.01;100732.50;6341156;28;20187;-77
2021/08/14 12:42:17;;;;;;;3.22;1.38;;;;;;;22.45;45.01;100725.47;6341125;28;20187;-77
2021/08/14 12:45:23;;;;;;;5.03;1.45;;;;;;;22.47;45.16;100729.91;6339643;28;20183;-78
2021/08/14 12:48:30;;;;;;;5.18;1.50;;;;;;;22.50;45.72;100734.84;6340742;28;20481;-78
2021/08/14 12:51:34;;;;;;;2.05;1.45;;;;;;;22.55;45.18;100732.00;6339474;28;20573;-77
2021/08/14 12:54:56;;;;;;;2.42;1.50;;;;;;;22.48;43.78;100725.97;6340053;28;20183;-78
2021/08/14 12:58:02;;;;;;;3.65;1.40;;;;;;;22.62;44.10;100721.34;6339742;28;20183;-77
2021/08/14 13:01:07;;;;;;;4.10;1.75;;;;;;;22.56;44.30;100716.97;6339356;28;20210;-77
2021/08/14 13:04:15;;;;;;;6.85;1.58;;;;;;;22.62;44.50;100732.47;6339449;28;20470;-77
2021/08/14 13:07:21;;;;;;;3.00;1.40;;;;;;;22.75;45.02;100706.75;6339229;28;20477;-77
2021/08/14 13:10:27;;;;;;;2.85;1.45;;;;;;;22.90;44.62;100717.63;6340193;28;20217;-76
2021/08/14 13:13:34;;;;;;;8.95;1.58;;;;;;;22.78;43.79;100722.81;6339832;28;20183;-76
2021/08/14 13:16:38;;;;;;;3.53;1.48;;;;;;;22.77;44.32;100715.59;6339124;28;20532;-76
2021/08/14 13:19:42;;;;;;;1.27;1.20;;;;;;;22.76;45.14;100734.25;6339978;28;20186;-76
2021/08/14 13:22:49;;;;;;;2.65;1.40;;;;;;;22.89;44.41;100710.41;6339498;28;20183;-77
2021/08/14 13:25:56;;;;;;;2.70;1.50;;;;;;;22.80;45.05;100712.22;6340093;28;20190;-76
2021/08/14 13:29:00;;;;;;;4.85;1.50;;;;;;;22.79;45.57;100696.66;6339491;28;20266;-76
2021/08/14 13:32:09;;;;;;;4.20;1.45;;;;;;;22.69;45.96;100688.47;6338920;28;20183;-80
2021/08/14 13:35:14;;;;;;;3.55;1.40;;;;;;;22.74;45.32;100692.00;6339003;28;20274;-78
2021/08/14 13:38:21;;;;;;;2.70;1.25;;;;;;;22.55;45.54;100698.63;6339542;28;20189;-77
2021/08/14 13:41:27;;;;;;;5.80;1.60;;;;;;;22.76;45.97;100694.47;6338517;28;20478;-77
2021/08/14 13:44:31;;;;;;;8.38;1.60;;;;;;;22.89;46.26;100688.97;6339745;28;20220;-77
2021/08/14 13:47:36;;;;;;;2.95;1.40;;;;;;;22.80;46.40;100684.41;6338680;28;20214;-77
2021/08/14 13:50:40;;;;;;;1.92;1.30;;;;;;;22.85;46.38;100667.66;6339480;28;20283;-77
2021/08/14 13:53:44;;;;;;;1.40;1.30;;;;;;;22.62;47.71;100683.28;6338755;28;20183;-77
2021/08/14 13:56:49;;;;;;;2.45;1.60;;;;;;;22.62;47.12;100665.75;6339248;28;20214;-77
2021/08/14 13:59:54;;;;;;;2.08;1.30;;;;;;;22.71;47.37;100658.38;6338771;28;20193;-77
2021/08/14 14:02:58;;;;;;;2.63;1.52;;;;;;;22.67;47.57;100651.78;6338669;28;20246;-77
2021/08/14 14:06:03;;;;;;;2.40;1.10;;;;;;;22.63;46.58;100646.00;6338069;28;20470;-77
2021/08/14 14:09:08;;;;;;;2.75;1.00;;;;;;;22.43;46.26;100649.88;6339096;28;20182;-77
2021/08/14 14:12:13;;;;;;;2.85;1.70;;;;;;;22.57;47.11;100640.81;6338432;28;20616;-78
2021/08/14 14:15:17;;;;;;;6.53;2.03;;;;;;;22.70;47.40;100640.06;6341138;28;20227;-78
2021/08/14 14:18:22;;;;;;;4.60;2.40;;;;;;;22.68;46.79;100628.41;6342237;28;20190;-78
2021/08/14 14:21:26;;;;;;;1.50;1.40;;;;;;;22.39;47.38;100629.34;6341710;28;20194;-78
2021/08/14 14:24:33;;;;;;;2.65;1.20;;;;;;;22.28;47.90;100622.31;6342035;28;20187;-78
2021/08/14 14:27:42;;;;;;;1.23;1.23;;;;;;;22.32;46.90;100634.47;6341888;28;20183;-78